sensor_id;sensor_type;location;lat;lon;timestamp;P1;durP1;ratioP1;P2;durP2;ratioP2
62475;SDS011;50739;45.670;11.936;2023-03-01T00:03:09;14.27;;;8.00;;
62475;SDS011;50739;45.670;11.936;2023-03-01T00:08:11;14.60;;;8.33;;
62475;SDS011;50739;45.670;11.936;2023-03-01T00:13:13;13.65;;;7.68;;
62475;SDS011;50739;45.670;11.936;2023-03-01T00:18:16;14.25;;;7.78;;
62475;SDS011;50739;45.670;11.936;2023-03-01T00:23:18;13.57;;;7.53;;
62475;SDS011;50739;45.670;11.936;2023-03-01T00:28:20;12.32;;;6.95;;
62475;SDS011;50739;45.670;11.936;2023-03-01T00:33:24;11.38;;;7.10;;
62475;SDS011;50739;45.670;11.936;2023-03-01T00:38:26;11.90;;;7.17;;
62475;SDS011;50739;45.670;11.936;2023-03-01T00:43:28;12.07;;;7.70;;
62475;SDS011;50739;45.670;11.936;2023-03-01T00:48:31;11.70;;;7.90;;
62475;SDS011;50739;45.670;11.936;2023-03-01T00:53:33;12.30;;;8.05;;
62475;SDS011;50739;45.670;11.936;2023-03-01T00:58:35;15.32;;;7.90;;
62475;SDS011;50739;45.670;11.936;2023-03-01T01:03:39;12.63;;;8.10;;
62475;SDS011;50739;45.670;11.936;2023-03-01T01:08:40;12.27;;;7.33;;
62475;SDS011;50739;45.670;11.936;2023-03-01T01:13:43;12.50;;;7.43;;
62475;SDS011;50739;45.670;11.936;2023-03-01T01:18:47;12.48;;;7.38;;
62475;SDS011;50739;45.670;11.936;2023-03-01T01:23:49;13.80;;;7.30;;
62475;SDS011;50739;45.670;11.936;2023-03-01T01:28:51;12.43;;;7.97;;
62475;SDS011;50739;45.670;11.936;2023-03-01T01:33:56;12.45;;;7.47;;
62475;SDS011;50739;45.670;11.936;2023-03-01T01:38:58;14.03;;;8.17;;
62475;SDS011;50739;45.670;11.936;2023-03-01T01:44:11;11.98;;;7.95;;
62475;SDS011;50739;45.670;11.936;2023-03-01T01:54:39;13.60;;;7.87;;
62475;SDS011;50739;45.670;11.936;2023-03-01T01:59:45;14.60;;;8.10;;
62475;SDS011;50739;45.670;11.936;2023-03-01T02:05:04;13.00;;;7.68;;
62475;SDS011;50739;45.670;11.936;2023-03-01T02:10:11;12.87;;;7.30;;
62475;SDS011;50739;45.670;11.936;2023-03-01T02:15:13;12.33;;;6.83;;
62475;SDS011;50739;45.670;11.936;2023-03-01T02:20:18;12.90;;;8.00;;
62475;SDS011;50739;45.670;11.936;2023-03-01T02:25:32;12.47;;;7.50;;
62475;SDS011;50739;45.670;11.936;2023-03-01T02:30:38;12.13;;;7.03;;
62475;SDS011;50739;45.670;11.936;2023-03-01T02:36:02;12.27;;;7.40;;
62475;SDS011;50739;45.670;11.936;2023-03-01T02:41:07;10.95;;;6.90;;
62475;SDS011;50739;45.670;11.936;2023-03-01T02:46:15;11.05;;;6.60;;
62475;SDS011;50739;45.670;11.936;2023-03-01T02:51:22;10.47;;;6.63;;
62475;SDS011;50739;45.670;11.936;2023-03-01T02:56:32;9.32;;;6.32;;
62475;SDS011;50739;45.670;11.936;2023-03-01T03:01:35;10.20;;;6.10;;
62475;SDS011;50739;45.670;11.936;2023-03-01T03:06:40;10.23;;;6.50;;
62475;SDS011;50739;45.670;11.936;2023-03-01T03:11:42;9.98;;;5.88;;
62475;SDS011;50739;45.670;11.936;2023-03-01T03:16:46;10.07;;;5.95;;
62475;SDS011;50739;45.670;11.936;2023-03-01T03:21:49;9.73;;;5.88;;
62475;SDS011;50739;45.670;11.936;2023-03-01T03:26:51;9.85;;;6.03;;
62475;SDS011;50739;45.670;11.936;2023-03-01T03:31:54;8.13;;;5.30;;
62475;SDS011;50739;45.670;11.936;2023-03-01T03:36:56;10.55;;;5.95;;
62475;SDS011;50739;45.670;11.936;2023-03-01T03:41:59;8.70;;;5.22;;
62475;SDS011;50739;45.670;11.936;2023-03-01T03:47:02;10.82;;;5.68;;
62475;SDS011;50739;45.670;11.936;2023-03-01T03:52:04;9.13;;;5.60;;
62475;SDS011;50739;45.670;11.936;2023-03-01T03:57:13;9.38;;;5.72;;
62475;SDS011;50739;45.670;11.936;2023-03-01T04:02:16;10.70;;;5.80;;
62475;SDS011;50739;45.670;11.936;2023-03-01T04:07:22;8.40;;;5.22;;
62475;SDS011;50739;45.670;11.936;2023-03-01T04:12:24;10.05;;;5.50;;
62475;SDS011;50739;45.670;11.936;2023-03-01T04:17:27;9.13;;;5.65;;
62475;SDS011;50739;45.670;11.936;2023-03-01T04:22:29;9.60;;;5.80;;
62475;SDS011;50739;45.670;11.936;2023-03-01T04:27:32;8.93;;;5.57;;
62475;SDS011;50739;45.670;11.936;2023-03-01T04:32:36;7.72;;;5.05;;
62475;SDS011;50739;45.670;11.936;2023-03-01T04:37:38;8.53;;;5.30;;
62475;SDS011;50739;45.670;11.936;2023-03-01T04:42:41;7.73;;;4.77;;
62475;SDS011;50739;45.670;11.936;2023-03-01T04:47:45;8.13;;;4.90;;
62475;SDS011;50739;45.670;11.936;2023-03-01T04:52:47;7.40;;;4.90;;
62475;SDS011;50739;45.670;11.936;2023-03-01T04:57:50;8.35;;;4.90;;
62475;SDS011;50739;45.670;11.936;2023-03-01T05:02:54;10.20;;;4.80;;
62475;SDS011;50739;45.670;11.936;2023-03-01T05:07:57;10.45;;;4.45;;
62475;SDS011;50739;45.670;11.936;2023-03-01T05:13:01;8.73;;;4.00;;
62475;SDS011;50739;45.670;11.936;2023-03-01T05:18:05;5.53;;;4.00;;
62475;SDS011;50739;45.670;11.936;2023-03-01T05:23:11;7.03;;;3.63;;
62475;SDS011;50739;45.670;11.936;2023-03-01T05:28:13;7.00;;;3.80;;
62475;SDS011;50739;45.670;11.936;2023-03-01T05:33:16;6.03;;;3.70;;
62475;SDS011;50739;45.670;11.936;2023-03-01T05:38:19;6.73;;;3.83;;
62475;SDS011;50739;45.670;11.936;2023-03-01T05:43:22;5.93;;;3.83;;
62475;SDS011;50739;45.670;11.936;2023-03-01T05:48:25;7.85;;;4.90;;
62475;SDS011;50739;45.670;11.936;2023-03-01T05:53:27;7.18;;;4.07;;
62475;SDS011;50739;45.670;11.936;2023-03-01T05:58:29;7.17;;;4.30;;
62475;SDS011;50739;45.670;11.936;2023-03-01T06:03:33;7.53;;;4.47;;
62475;SDS011;50739;45.670;11.936;2023-03-01T06:08:35;9.13;;;5.70;;
62475;SDS011;50739;45.670;11.936;2023-03-01T06:13:37;10.07;;;6.10;;
62475;SDS011;50739;45.670;11.936;2023-03-01T06:18:40;9.30;;;5.97;;
62475;SDS011;50739;45.670;11.936;2023-03-01T06:23:42;8.65;;;5.63;;
62475;SDS011;50739;45.670;11.936;2023-03-01T06:28:44;7.78;;;4.90;;
62475;SDS011;50739;45.670;11.936;2023-03-01T06:45:41;7.32;;;4.93;;
62475;SDS011;50739;45.670;11.936;2023-03-01T06:50:43;10.30;;;5.78;;
62475;SDS011;50739;45.670;11.936;2023-03-01T06:55:45;9.60;;;5.50;;
62475;SDS011;50739;45.670;11.936;2023-03-01T07:00:48;12.30;;;5.95;;
62475;SDS011;50739;45.670;11.936;2023-03-01T07:05:50;12.23;;;6.13;;
62475;SDS011;50739;45.670;11.936;2023-03-01T07:10:54;12.30;;;7.47;;
62475;SDS011;50739;45.670;11.936;2023-03-01T07:15:58;15.25;;;7.97;;
62475;SDS011;50739;45.670;11.936;2023-03-01T07:21:03;11.93;;;7.30;;
62475;SDS011;50739;45.670;11.936;2023-03-01T07:26:05;12.23;;;7.38;;
62475;SDS011;50739;45.670;11.936;2023-03-01T07:31:09;11.10;;;7.50;;
62475;SDS011;50739;45.670;11.936;2023-03-01T07:36:11;15.75;;;8.77;;
62475;SDS011;50739;45.670;11.936;2023-03-01T07:41:13;13.88;;;8.55;;
62475;SDS011;50739;45.670;11.936;2023-03-01T07:46:16;12.43;;;7.63;;
62475;SDS011;50739;45.670;11.936;2023-03-01T07:51:19;13.20;;;8.25;;
62475;SDS011;50739;45.670;11.936;2023-03-01T07:56:21;11.45;;;7.20;;
62475;SDS011;50739;45.670;11.936;2023-03-01T08:01:24;10.48;;;6.97;;
62475;SDS011;50739;45.670;11.936;2023-03-01T08:06:26;12.52;;;7.22;;
62475;SDS011;50739;45.670;11.936;2023-03-01T08:11:28;12.20;;;6.97;;
62475;SDS011;50739;45.670;11.936;2023-03-01T08:16:31;9.52;;;5.70;;
62475;SDS011;50739;45.670;11.936;2023-03-01T08:21:35;7.25;;;4.75;;
62475;SDS011;50739;45.670;11.936;2023-03-01T08:26:37;7.00;;;4.20;;
62475;SDS011;50739;45.670;11.936;2023-03-01T08:31:40;6.88;;;4.00;;
62475;SDS011;50739;45.670;11.936;2023-03-01T08:36:43;7.07;;;3.53;;
62475;SDS011;50739;45.670;11.936;2023-03-01T08:41:45;6.55;;;3.78;;
62475;SDS011;50739;45.670;11.936;2023-03-01T08:46:49;6.00;;;3.60;;
62475;SDS011;50739;45.670;11.936;2023-03-01T08:51:53;6.15;;;3.75;;
62475;SDS011;50739;45.670;11.936;2023-03-01T08:56:54;5.80;;;3.50;;
62475;SDS011;50739;45.670;11.936;2023-03-01T09:02:00;10.80;;;4.88;;
62475;SDS011;50739;45.670;11.936;2023-03-01T09:07:02;6.63;;;3.83;;
62475;SDS011;50739;45.670;11.936;2023-03-01T09:12:04;6.93;;;3.80;;
62475;SDS011;50739;45.670;11.936;2023-03-01T09:17:07;6.55;;;3.97;;
62475;SDS011;50739;45.670;11.936;2023-03-01T09:22:09;6.80;;;3.60;;
62475;SDS011;50739;45.670;11.936;2023-03-01T09:27:11;6.65;;;3.80;;
62475;SDS011;50739;45.670;11.936;2023-03-01T09:32:16;7.50;;;4.18;;
62475;SDS011;50739;45.670;11.936;2023-03-01T09:37:17;6.03;;;3.90;;
62475;SDS011;50739;45.670;11.936;2023-03-01T09:42:19;8.30;;;4.18;;
62475;SDS011;50739;45.670;11.936;2023-03-01T09:47:24;7.35;;;3.58;;
62475;SDS011;50739;45.670;11.936;2023-03-01T09:52:29;6.20;;;3.72;;
62475;SDS011;50739;45.670;11.936;2023-03-01T09:57:38;5.97;;;3.60;;
62475;SDS011;50739;45.670;11.936;2023-03-01T10:02:49;7.47;;;4.05;;
62475;SDS011;50739;45.670;11.936;2023-03-01T10:07:58;7.65;;;3.30;;
62475;SDS011;50739;45.670;11.936;2023-03-01T10:13:16;6.38;;;3.70;;
62475;SDS011;50739;45.670;11.936;2023-03-01T10:18:22;9.10;;;3.67;;
62475;SDS011;50739;45.670;11.936;2023-03-01T10:23:28;8.20;;;3.95;;
62475;SDS011;50739;45.670;11.936;2023-03-01T10:28:35;5.47;;;3.50;;
62475;SDS011;50739;45.670;11.936;2023-03-01T10:33:47;8.27;;;3.47;;
62475;SDS011;50739;45.670;11.936;2023-03-01T10:38:57;12.03;;;3.80;;
62475;SDS011;50739;45.670;11.936;2023-03-01T10:43:59;10.90;;;4.35;;
62475;SDS011;50739;45.670;11.936;2023-03-01T10:49:12;8.05;;;4.10;;
62475;SDS011;50739;45.670;11.936;2023-03-01T10:54:18;8.35;;;4.38;;
62475;SDS011;50739;45.670;11.936;2023-03-01T10:59:30;6.53;;;4.28;;
62475;SDS011;50739;45.670;11.936;2023-03-01T11:04:35;6.80;;;3.70;;
62475;SDS011;50739;45.670;11.936;2023-03-01T11:09:37;11.77;;;3.83;;
62475;SDS011;50739;45.670;11.936;2023-03-01T11:14:39;8.00;;;3.70;;
62475;SDS011;50739;45.670;11.936;2023-03-01T11:20:00;11.63;;;3.50;;
62475;SDS011;50739;45.670;11.936;2023-03-01T11:25:05;7.82;;;3.35;;
62475;SDS011;50739;45.670;11.936;2023-03-01T11:30:15;8.82;;;3.42;;
62475;SDS011;50739;45.670;11.936;2023-03-01T11:35:23;11.48;;;3.58;;
62475;SDS011;50739;45.670;11.936;2023-03-01T11:40:28;9.80;;;3.47;;
62475;SDS011;50739;45.670;11.936;2023-03-01T11:45:38;7.97;;;3.40;;
62475;SDS011;50739;45.670;11.936;2023-03-01T11:50:57;10.27;;;3.40;;
62475;SDS011;50739;45.670;11.936;2023-03-01T11:56:09;8.10;;;3.70;;
62475;SDS011;50739;45.670;11.936;2023-03-01T12:01:21;9.90;;;3.53;;
62475;SDS011;50739;45.670;11.936;2023-03-01T12:06:36;8.75;;;3.50;;
62475;SDS011;50739;45.670;11.936;2023-03-01T12:12:04;11.60;;;3.97;;
62475;SDS011;50739;45.670;11.936;2023-03-01T12:17:31;8.43;;;3.70;;
62475;SDS011;50739;45.670;11.936;2023-03-01T12:22:46;7.78;;;3.00;;
62475;SDS011;50739;45.670;11.936;2023-03-01T12:33:26;10.65;;;3.42;;
62475;SDS011;50739;45.670;11.936;2023-03-01T12:38:41;7.90;;;3.28;;
62475;SDS011;50739;45.670;11.936;2023-03-01T12:43:54;9.20;;;4.00;;
62475;SDS011;50739;45.670;11.936;2023-03-01T12:49:07;10.05;;;3.67;;
62475;SDS011;50739;45.670;11.936;2023-03-01T12:54:16;11.73;;;3.63;;
62475;SDS011;50739;45.670;11.936;2023-03-01T12:59:21;11.18;;;3.28;;
62475;SDS011;50739;45.670;11.936;2023-03-01T13:04:35;10.18;;;3.85;;
62475;SDS011;50739;45.670;11.936;2023-03-01T13:09:47;8.45;;;3.60;;
62475;SDS011;50739;45.670;11.936;2023-03-01T13:15:01;10.10;;;3.80;;
62475;SDS011;50739;45.670;11.936;2023-03-01T13:20:11;8.02;;;4.45;;
62475;SDS011;50739;45.670;11.936;2023-03-01T13:25:17;9.10;;;4.53;;
62475;SDS011;50739;45.670;11.936;2023-03-01T13:30:38;8.33;;;4.40;;
62475;SDS011;50739;45.670;11.936;2023-03-01T13:35:44;7.03;;;4.28;;
62475;SDS011;50739;45.670;11.936;2023-03-01T13:40:59;10.45;;;4.97;;
62475;SDS011;50739;45.670;11.936;2023-03-01T13:46:02;9.80;;;4.37;;
62475;SDS011;50739;45.670;11.936;2023-03-01T13:51:11;8.82;;;4.55;;
62475;SDS011;50739;45.670;11.936;2023-03-01T13:56:15;9.55;;;4.30;;
62475;SDS011;50739;45.670;11.936;2023-03-01T14:01:21;9.82;;;4.53;;
62475;SDS011;50739;45.670;11.936;2023-03-01T14:06:25;9.68;;;4.40;;
62475;SDS011;50739;45.670;11.936;2023-03-01T14:11:35;9.25;;;4.40;;
62475;SDS011;50739;45.670;11.936;2023-03-01T14:16:51;7.73;;;4.33;;
62475;SDS011;50739;45.670;11.936;2023-03-01T14:22:04;8.75;;;4.40;;
62475;SDS011;50739;45.670;11.936;2023-03-01T14:27:15;8.05;;;4.18;;
62475;SDS011;50739;45.670;11.936;2023-03-01T14:32:18;7.18;;;3.65;;
62475;SDS011;50739;45.670;11.936;2023-03-01T14:37:22;8.50;;;4.20;;
62475;SDS011;50739;45.670;11.936;2023-03-01T14:42:28;7.60;;;4.10;;
62475;SDS011;50739;45.670;11.936;2023-03-01T14:47:35;6.45;;;4.10;;
62475;SDS011;50739;45.670;11.936;2023-03-01T14:52:40;9.15;;;4.80;;
62475;SDS011;50739;45.670;11.936;2023-03-01T14:57:46;9.80;;;5.43;;
62475;SDS011;50739;45.670;11.936;2023-03-01T15:02:50;10.48;;;5.10;;
62475;SDS011;50739;45.670;11.936;2023-03-01T15:07:54;6.95;;;4.30;;
62475;SDS011;50739;45.670;11.936;2023-03-01T15:13:09;7.45;;;5.25;;
62475;SDS011;50739;45.670;11.936;2023-03-01T15:18:16;9.10;;;5.13;;
62475;SDS011;50739;45.670;11.936;2023-03-01T15:23:23;9.53;;;4.90;;
62475;SDS011;50739;45.670;11.936;2023-03-01T15:28:28;7.68;;;4.38;;
62475;SDS011;50739;45.670;11.936;2023-03-01T15:33:34;7.07;;;4.10;;
62475;SDS011;50739;45.670;11.936;2023-03-01T15:38:50;9.70;;;4.77;;
62475;SDS011;50739;45.670;11.936;2023-03-01T15:43:55;10.55;;;4.97;;
62475;SDS011;50739;45.670;11.936;2023-03-01T15:48:58;6.80;;;4.03;;
62475;SDS011;50739;45.670;11.936;2023-03-01T15:54:03;7.07;;;3.43;;
62475;SDS011;50739;45.670;11.936;2023-03-01T15:59:10;5.25;;;2.90;;
62475;SDS011;50739;45.670;11.936;2023-03-01T16:04:15;6.75;;;3.10;;
62475;SDS011;50739;45.670;11.936;2023-03-01T16:09:23;5.57;;;2.63;;
62475;SDS011;50739;45.670;11.936;2023-03-01T16:14:27;3.38;;;2.47;;
62475;SDS011;50739;45.670;11.936;2023-03-01T16:19:29;3.60;;;2.50;;
62475;SDS011;50739;45.670;11.936;2023-03-01T16:24:31;4.82;;;3.10;;
62475;SDS011;50739;45.670;11.936;2023-03-01T16:29:34;4.88;;;2.90;;
62475;SDS011;50739;45.670;11.936;2023-03-01T16:34:36;5.53;;;3.67;;
62475;SDS011;50739;45.670;11.936;2023-03-01T16:39:38;4.25;;;3.10;;
62475;SDS011;50739;45.670;11.936;2023-03-01T16:44:41;4.65;;;3.03;;
62475;SDS011;50739;45.670;11.936;2023-03-01T16:49:43;6.25;;;4.03;;
62475;SDS011;50739;45.670;11.936;2023-03-01T16:54:45;6.10;;;3.97;;
62475;SDS011;50739;45.670;11.936;2023-03-01T16:59:48;5.95;;;4.10;;
62475;SDS011;50739;45.670;11.936;2023-03-01T17:04:53;6.65;;;4.28;;
62475;SDS011;50739;45.670;11.936;2023-03-01T17:09:55;7.35;;;4.30;;
62475;SDS011;50739;45.670;11.936;2023-03-01T17:14:58;7.63;;;4.40;;
62475;SDS011;50739;45.670;11.936;2023-03-01T17:20:00;7.60;;;4.93;;
62475;SDS011;50739;45.670;11.936;2023-03-01T17:25:03;8.02;;;5.10;;
62475;SDS011;50739;45.670;11.936;2023-03-01T17:30:08;10.47;;;6.40;;
62475;SDS011;50739;45.670;11.936;2023-03-01T17:35:14;6.57;;;4.53;;
62475;SDS011;50739;45.670;11.936;2023-03-01T17:40:16;8.13;;;4.85;;
62475;SDS011;50739;45.670;11.936;2023-03-01T17:45:19;6.03;;;4.03;;
62475;SDS011;50739;45.670;11.936;2023-03-01T17:50:21;5.50;;;3.60;;
62475;SDS011;50739;45.670;11.936;2023-03-01T17:55:23;5.63;;;3.70;;
62475;SDS011;50739;45.670;11.936;2023-03-01T18:00:27;5.38;;;3.80;;
62475;SDS011;50739;45.670;11.936;2023-03-01T18:05:30;6.22;;;4.25;;
62475;SDS011;50739;45.670;11.936;2023-03-01T18:10:32;6.45;;;3.75;;
62475;SDS011;50739;45.670;11.936;2023-03-01T18:15:37;6.05;;;3.80;;
62475;SDS011;50739;45.670;11.936;2023-03-01T18:20:39;5.40;;;3.97;;
62475;SDS011;50739;45.670;11.936;2023-03-01T18:25:41;6.35;;;3.45;;
62475;SDS011;50739;45.670;11.936;2023-03-01T18:30:45;4.45;;;3.40;;
62475;SDS011;50739;45.670;11.936;2023-03-01T18:35:46;7.00;;;4.07;;
62475;SDS011;50739;45.670;11.936;2023-03-01T18:40:50;13.63;;;6.90;;
62475;SDS011;50739;45.670;11.936;2023-03-01T18:45:55;10.25;;;5.65;;
62475;SDS011;50739;45.670;11.936;2023-03-01T18:51:05;11.40;;;6.47;;
62475;SDS011;50739;45.670;11.936;2023-03-01T18:56:08;9.00;;;4.90;;
62475;SDS011;50739;45.670;11.936;2023-03-01T19:01:13;10.43;;;4.40;;
62475;SDS011;50739;45.670;11.936;2023-03-01T19:06:16;6.88;;;3.85;;
62475;SDS011;50739;45.670;11.936;2023-03-01T19:11:18;7.93;;;3.60;;
62475;SDS011;50739;45.670;11.936;2023-03-01T19:16:23;5.90;;;3.42;;
62475;SDS011;50739;45.670;11.936;2023-03-01T19:21:27;4.70;;;3.00;;
62475;SDS011;50739;45.670;11.936;2023-03-01T19:26:30;6.00;;;3.33;;
62475;SDS011;50739;45.670;11.936;2023-03-01T19:31:34;7.38;;;4.03;;
62475;SDS011;50739;45.670;11.936;2023-03-01T19:36:36;4.57;;;2.40;;
62475;SDS011;50739;45.670;11.936;2023-03-01T19:41:38;4.13;;;2.17;;
62475;SDS011;50739;45.670;11.936;2023-03-01T19:46:41;3.90;;;2.50;;
62475;SDS011;50739;45.670;11.936;2023-03-01T19:51:43;5.97;;;3.42;;
62475;SDS011;50739;45.670;11.936;2023-03-01T19:56:46;9.00;;;4.50;;
62475;SDS011;50739;45.670;11.936;2023-03-01T20:01:49;4.30;;;3.50;;
62475;SDS011;50739;45.670;11.936;2023-03-01T20:06:51;5.35;;;3.85;;
62475;SDS011;50739;45.670;11.936;2023-03-01T20:11:53;6.17;;;4.20;;
62475;SDS011;50739;45.670;11.936;2023-03-01T20:16:56;7.43;;;4.43;;
62475;SDS011;50739;45.670;11.936;2023-03-01T20:21:58;5.82;;;4.18;;
62475;SDS011;50739;45.670;11.936;2023-03-01T20:27:00;8.68;;;4.68;;
62475;SDS011;50739;45.670;11.936;2023-03-01T20:32:04;9.43;;;4.93;;
62475;SDS011;50739;45.670;11.936;2023-03-01T20:37:06;8.95;;;5.30;;
62475;SDS011;50739;45.670;11.936;2023-03-01T20:42:08;10.53;;;5.47;;
62475;SDS011;50739;45.670;11.936;2023-03-01T20:47:11;12.50;;;7.38;;
62475;SDS011;50739;45.670;11.936;2023-03-01T20:52:19;9.75;;;6.05;;
62475;SDS011;50739;45.670;11.936;2023-03-01T20:57:21;7.70;;;5.33;;
62475;SDS011;50739;45.670;11.936;2023-03-01T21:02:24;9.07;;;4.90;;
62475;SDS011;50739;45.670;11.936;2023-03-01T21:07:26;8.52;;;4.80;;
62475;SDS011;50739;45.670;11.936;2023-03-01T21:12:29;9.57;;;5.20;;
62475;SDS011;50739;45.670;11.936;2023-03-01T21:17:32;11.57;;;5.27;;
62475;SDS011;50739;45.670;11.936;2023-03-01T21:22:34;10.55;;;5.32;;
62475;SDS011;50739;45.670;11.936;2023-03-01T21:27:36;8.25;;;4.53;;
62475;SDS011;50739;45.670;11.936;2023-03-01T21:32:40;10.47;;;5.30;;
62475;SDS011;50739;45.670;11.936;2023-03-01T21:37:42;8.73;;;5.15;;
62475;SDS011;50739;45.670;11.936;2023-03-01T21:42:44;8.70;;;4.90;;
62475;SDS011;50739;45.670;11.936;2023-03-01T21:47:50;8.85;;;5.20;;
62475;SDS011;50739;45.670;11.936;2023-03-01T21:52:51;8.90;;;4.75;;
62475;SDS011;50739;45.670;11.936;2023-03-01T21:57:54;9.32;;;5.35;;
62475;SDS011;50739;45.670;11.936;2023-03-01T22:02:57;9.68;;;5.57;;
62475;SDS011;50739;45.670;11.936;2023-03-01T22:07:59;8.15;;;5.00;;
62475;SDS011;50739;45.670;11.936;2023-03-01T22:13:01;8.17;;;4.70;;
62475;SDS011;50739;45.670;11.936;2023-03-01T22:18:04;9.18;;;5.20;;
62475;SDS011;50739;45.670;11.936;2023-03-01T22:23:06;9.17;;;5.43;;
62475;SDS011;50739;45.670;11.936;2023-03-01T22:28:08;8.00;;;4.90;;
62475;SDS011;50739;45.670;11.936;2023-03-01T22:33:11;8.50;;;4.70;;
62475;SDS011;50739;45.670;11.936;2023-03-01T22:38:13;9.13;;;4.27;;
62475;SDS011;50739;45.670;11.936;2023-03-01T22:43:16;6.90;;;4.45;;
62475;SDS011;50739;45.670;11.936;2023-03-01T22:48:19;6.17;;;4.60;;
62475;SDS011;50739;45.670;11.936;2023-03-01T22:53:20;8.13;;;5.15;;
62475;SDS011;50739;45.670;11.936;2023-03-01T22:58:22;7.53;;;4.30;;
62475;SDS011;50739;45.670;11.936;2023-03-01T23:03:25;6.63;;;4.85;;
62475;SDS011;50739;45.670;11.936;2023-03-01T23:08:27;6.93;;;4.10;;
62475;SDS011;50739;45.670;11.936;2023-03-01T23:13:29;7.43;;;4.70;;
62475;SDS011;50739;45.670;11.936;2023-03-01T23:18:32;6.80;;;3.92;;
62475;SDS011;50739;45.670;11.936;2023-03-01T23:23:34;6.57;;;4.00;;
62475;SDS011;50739;45.670;11.936;2023-03-01T23:28:36;6.10;;;4.10;;
62475;SDS011;50739;45.670;11.936;2023-03-01T23:33:41;5.95;;;3.97;;
62475;SDS011;50739;45.670;11.936;2023-03-01T23:38:44;5.82;;;4.00;;
62475;SDS011;50739;45.670;11.936;2023-03-01T23:43:46;7.82;;;4.10;;
62475;SDS011;50739;45.670;11.936;2023-03-01T23:48:51;6.97;;;4.10;;
62475;SDS011;50739;45.670;11.936;2023-03-01T23:53:54;5.55;;;3.33;;
62475;SDS011;50739;45.670;11.936;2023-03-01T23:58:59;6.35;;;4.00;;
